NY/NJ Local METAR Reports

 

KNYC - NYC/Central Park, NY, USA
Distance from Hoboken: NE 4mi, 7km
Updated: 05/26/2018 6:51pm
Partly cloudy
Partly cloudy
 Wind from calm
Wind: Calm
Temperature: 84°F , 29°C
Heat Index: 86°F , 30°C
Dew Point: 66°F , 19°C
Humidity: 55%
Barometer: 29.82 inHg , 1009.8 hPa
Clouds: Partly cloudy
Visibility: 9 miles , 14 km
Cloud details: Partly cloudy 7000 ft
2018/05/26 22:51 KNYC 262251Z AUTO 00000KT 9SM SCT070 29/19 A2982 RMK AO2 SLP089 T02890194 $
KEWR - Newark, NJ, USA
Distance from Hoboken: WSW 8mi, 13km
Updated: 05/26/2018 6:51pm
Partly cloudy
Partly cloudy
 Wind from WSW
Wind: WSW 8 mph , 13 km/h
Temperature: 86°F , 30°C
Heat Index: 87°F , 31°C
Dew Point: 63°F , 17°C
Humidity: 46%
Barometer: 29.78 inHg , 1008.5 hPa
Clouds: Partly cloudy
Visibility: 10 miles , 16 km
Cloud details: Few Clouds 6000 ft
Partly cloudy 10000 ft
Partly cloudy 25000 ft
2018/05/26 22:51 KEWR 262251Z 24007KT 10SM FEW060 SCT100 SCT250 30/17 A2978 RMK AO2 LTG DSNT SE AND S SLP085 OCNL LTGIC DSNT SE-DSNT S CB DSNT SE-DSNT S MOV E T03000172
 
KLGA - NYC/La Guardia, NY, USA
Distance from Hoboken: ENE 8mi, 13km
Updated: 05/26/2018 6:51pm
Mostly cloudy
Mostly cloudy
 Wind from SE
Wind: SE 12 mph , 19 km/h
Temperature: 84°F , 29°C
Heat Index: 86°F , 30°C
Dew Point: 66°F , 19°C
Humidity: 55%
Barometer: 29.79 inHg , 1008.8 hPa
Clouds: Mostly cloudy
Visibility: 10 miles , 16 km
Cloud details: Few Clouds 6000 ft
Few Clouds 9000 ft
Partly cloudy 13000 ft
Mostly cloudy 25000 ft
2018/05/26 22:51 KLGA 262251Z 14010KT 10SM FEW060 FEW090 SCT130 BKN250 29/19 A2979 RMK AO2 LTG DSNT S AND SW SLP088 CB DSNT S-SW T02940189
KTEB - Teterboro, NJ, USA
Distance from Hoboken: N 9mi, 14km
Updated: 05/26/2018 6:51pm
Mostly cloudy
Mostly cloudy
 Wind from N
Wind: N 8 mph , 13 km/h
Temperature: 88°F , 31°C
Dew Point: 54°F , 12°C
Humidity: 31%
Barometer: 29.78 inHg , 1008.5 hPa
Clouds: Mostly cloudy
Visibility: 10 miles , 16 km
Cloud details: Partly cloudy 8000 ft
Mostly cloudy 9000 ft
2018/05/26 22:51 KTEB 262251Z 01007KT 10SM SCT080 BKN090 31/12 A2978 RMK AO2 SLP083 T03110122
 
KJFK - NYC/Jfk Arpt, NY, USA
Distance from Hoboken: ESE 16mi, 25km
Updated: 05/26/2018 6:51pm
Mostly cloudy
Mostly cloudy
 Wind from calm
Wind: Calm
Temperature: 73°F , 23°C
Dew Point: 66°F , 19°C
Humidity: 78%
Barometer: 29.81 inHg , 1009.5 hPa
Clouds: Mostly cloudy
Visibility: 10 miles , 16 km
Cloud details: Few Clouds 6500 ft
Few Clouds 11000 ft
Partly cloudy 17000 ft
Mostly cloudy 25000 ft
2018/05/26 22:51 KJFK 262251Z 00000KT 10SM FEW065 FEW110 SCT170 BKN250 23/19 A2981 RMK AO2 LTG DSNT S AND SW SLP095 CB DSNT NE AND SW T02280194
KCDW - Caldwell, NJ, USA
Distance from Hoboken: NW 16mi, 26km
Updated: 05/26/2018 6:53pm
Clear
Clear
 Wind from NNE
Wind: NNE 3 mph , 6 km/h
Temperature: 88°F , 31°C
Dew Point: 55°F , 13°C
Humidity: 33%
Barometer: 29.81 inHg , 1009.5 hPa
Clouds: Clear
Visibility: 10 miles , 16 km
2018/05/26 22:53 KCDW 262253Z 03003KT 10SM CLR 31/13 A2981 RMK AO2 PRESRR SLP111 T03110128 $
 
KMMU - Morristown Muni, NJ, USA
Distance from Hoboken: W 20mi, 33km
Updated: 05/26/2018 5:45pm
NOT Current
Partly cloudy
Partly cloudy
 Wind from calm
Wind: Calm
Temperature: 90°F , 32°C
Dew Point: 61°F , 16°C
Humidity: 38%
Barometer: 29.79 inHg , 1008.8 hPa
Clouds: Partly cloudy
Visibility: 10 miles , 16 km
Cloud details: Partly cloudy 6000 ft
2018/05/26 21:45 KMMU 262145Z 00000KT 10SM SCT060 32/16 A2979
KHPN - White Plains, NY, USA
Distance from Hoboken: NE 28mi, 46km
Updated: 05/26/2018 6:56pm
Partly cloudy
Partly cloudy
 Wind from SE
Wind: SE 6 mph , 9 km/h
Temperature: 81°F , 27°C
Heat Index: 84°F , 29°C
Dew Point: 68°F , 20°C
Humidity: 66%
Barometer: 29.81 inHg , 1009.5 hPa
Clouds: Partly cloudy
Visibility: 10 miles , 16 km
Cloud details: Partly cloudy 5000 ft
2018/05/26 22:56 KHPN 262256Z 14005KT 10SM SCT050 27/20 A2981 RMK AO2 SLP087 T02670200
 
KFRG - Farmingdale, NY, USA
Distance from Hoboken: E 32mi, 52km
Updated: 05/26/2018 6:53pm
Mostly cloudy
Mostly cloudy
 Wind from SW
Wind: SW 7 mph , 11 km/h
Temperature: 79°F , 26°C
Dew Point: 66°F , 19°C
Humidity: 65%
Barometer: 29.82 inHg , 1009.8 hPa
Clouds: Mostly cloudy
Visibility: 10 miles , 16 km
Cloud details: Mostly cloudy 7000 ft
2018/05/26 22:53 KFRG 262253Z 23006KT 10SM BKN070 26/19 A2982 RMK AO2 SLP097 T02560189
KSMQ - Somerville, NJ, USA
Distance from Hoboken: WSW 34mi, 55km
Updated: 05/26/2018 6:53pm
Clear
Clear
 Wind from calm
Wind: Calm
Temperature: 86°F , 30°C
Heat Index: 91°F , 33°C
Dew Point: 70°F , 21°C
Humidity: 59%
Barometer: 29.78 inHg , 1008.5 hPa
Clouds: Clear
Visibility: 9 miles , 14 km
2018/05/26 22:53 KSMQ 262253Z AUTO 00000KT 9SM CLR 30/21 A2978 RMK AO2 LTG DSNT SE SLP081 T03000211
 
KBLM - Belmar/Farmdale, NJ, USA
Distance from Hoboken: S 40mi, 64km
Updated: 05/26/2018 6:56pm
Nearby thunderstorm, Clear
Nearby thunderstorm, Clear
 Wind from N
Wind: N 15 mph , 24 km/h, Gust: 25 mph , 41 km/h
Temperature: 81°F , 27°C
Heat Index: 83°F , 28°C
Dew Point: 64°F , 18°C
Humidity: 58%
Barometer: 29.83 inHg , 1010.2 hPa
Summary: Nearby Thunderstorm
Clouds: Clear
Visibility: 10 miles , 16 km
2018/05/26 22:56 KBLM 262256Z AUTO 35013G22KT 10SM VCTS CLR 27/18 A2983 RMK AO2 WSHFT 2239 LTG DSNT NW-NE TSB09 SLP104 T02670178
K12N - Andover, NJ, USA
Distance from Hoboken: WNW 41mi, 67km
Updated: 05/26/2018 6:54pm

 Wind from calm
Wind: Calm
Temperature: 82°F , 28°C
Heat Index: 84°F , 29°C
Dew Point: 64°F , 18°C
Humidity: 55%
Barometer: 29.82 inHg , 1009.8 hPa
2018/05/26 22:54 K12N 262254Z AUTO 00000KT 28/18 A2982 RMK AO1 SLP088 T02780183
 
KFWN - Sussex, NJ, USA
Distance from Hoboken: NW 45mi, 72km
Updated: 05/26/2018 6:53pm
Clear
Clear
 Wind from N
Wind: N 3 mph , 6 km/h
Temperature: 86°F , 30°C
Dew Point: 55°F , 13°C
Humidity: 35%
Barometer: 29.82 inHg , 1009.8 hPa
Clouds: Clear
Visibility: 10 miles , 16 km
2018/05/26 22:53 KFWN 262253Z AUTO 36003KT 10SM CLR 30/13 A2982 RMK AO2 SLP093 T03000133
KISP - Islip, NY, USA
Distance from Hoboken: E 49mi, 79km
Updated: 05/26/2018 6:56pm
Mostly cloudy
Mostly cloudy
 Wind from SW
Wind: SW 13 mph , 20 km/h
Temperature: 73°F , 23°C
Dew Point: 64°F , 18°C
Humidity: 74%
Barometer: 29.82 inHg , 1009.8 hPa
Clouds: Mostly cloudy
Visibility: 10 miles , 16 km
Cloud details: Few Clouds 4500 ft
Few Clouds 6500 ft
Partly cloudy 9000 ft
Mostly cloudy 14000 ft
Mostly cloudy 25000 ft
2018/05/26 22:56 KISP 262256Z 22011KT 10SM FEW045 FEW065 SCT090 BKN140 BKN250 23/18 A2982 RMK AO2 SLP097 CB DSNT SW T02280183